Terminal Aerodrome Forecast
Issued by NWS Indianapolis, IN

Home | Current Version | Previous Version | Text Only | Print | Product List | Glossary On
Versions: 1 2 3 4 5 6 7 8 9 10 11 12 13 14 15 16 17 18 19 20 21 22 23 24 25 26 27 28
077
FTUS43 KIND 161405 AAA
TAFIND
TAF AMD
KIND 161405Z 1614/1718 12005KT 2SM BR OVC005
     FM161600 13005KT 1 1/2SM BR OVC003
     FM161700 13005KT P6SM OVC003
     FM161900 13005KT P6SM VCSH OVC003
     FM170000 13007KT 3/4SM -SHRA OVC003
     FM170500 16009KT 1 1/2SM -SHRA OVC003 WS020/19035KT
     FM170700 17010KT 1 1/2SM -SHRA OVC003
     FM171000 20010KT P6SM OVC003
     FM171400 23009KT P6SM OVC010=

USA.gov is the U.S. government's official web portal to all federal, state and local government web resources and services.